createdAt,value
2022-11-10T00:00:13.635Z,12.40
2022-11-10T00:03:04.288Z,15.50
2022-11-10T00:05:51.309Z,12.03
2022-11-10T00:08:38.389Z,15.67
2022-11-10T00:11:25.892Z,11.73
2022-11-10T00:14:32.120Z,14.03
2022-11-10T00:17:19.648Z,8.83
2022-11-10T00:20:07.389Z,16.87
2022-11-10T00:22:56.603Z,15.87
2022-11-10T00:25:43.750Z,17.60
2022-11-10T00:28:32.570Z,10.43
2022-11-10T00:31:20.976Z,11.53
2022-11-10T00:34:08.090Z,13.40
2022-11-10T00:36:56.839Z,15.63
2022-11-10T00:39:43.903Z,13.70
2022-11-10T00:42:30.845Z,12.47
2022-11-10T00:45:18.209Z,13.50
2022-11-10T00:48:07.310Z,14.07
2022-11-10T00:50:54.570Z,18.60
2022-11-10T00:53:41.886Z,14.60
2022-11-10T00:56:29.151Z,12.67
2022-11-10T00:59:15.857Z,14.63
2022-11-10T01:02:03.134Z,13.37
2022-11-10T01:04:51.540Z,17.33
2022-11-10T01:07:38.461Z,16.63
2022-11-10T01:10:25.261Z,17.20
2022-11-10T01:13:12.007Z,16.83
2022-11-10T01:15:59.072Z,15.17
2022-11-10T01:18:50.342Z,17.70
2022-11-10T01:21:39.044Z,12.83
2022-11-10T01:24:26.364Z,12.30
2022-11-10T01:27:13.284Z,17.03
2022-11-10T01:30:00.604Z,18.30
2022-11-10T01:32:47.479Z,16.13
2022-11-10T01:35:35.033Z,24.97
2022-11-10T01:38:23.764Z,11.43
2022-11-10T01:41:12.973Z,13.57
2022-11-10T01:44:18.302Z,18.07
2022-11-10T01:47:05.497Z,12.90
2022-11-10T01:49:52.727Z,13.60
2022-11-10T01:52:40.727Z,15.33
2022-11-10T01:55:30.477Z,14.33
2022-11-10T01:58:22.189Z,10.07
2022-11-10T02:01:09.800Z,14.87
2022-11-10T02:04:00.473Z,16.63
2022-11-10T02:06:49.761Z,13.10
2022-11-10T02:09:39.785Z,14.60
2022-11-10T02:12:37.921Z,14.83
2022-11-10T02:15:26.324Z,20.30
2022-11-10T02:18:13.844Z,14.67
2022-11-10T02:21:05.517Z,14.47
2022-11-10T02:23:54.669Z,10.00
2022-11-10T02:26:46.849Z,14.40
2022-11-10T02:29:34.937Z,13.10
2022-11-10T02:32:21.599Z,18.47
2022-11-10T02:35:11.490Z,13.83
2022-11-10T02:38:00.546Z,11.33
2022-11-10T02:40:47.834Z,13.93
2022-11-10T02:43:36.065Z,17.93
2022-11-10T02:46:23.446Z,14.00
2022-11-10T02:49:11.025Z,13.93
2022-11-10T02:51:58.718Z,11.57
2022-11-10T02:54:47.408Z,15.97
2022-11-10T02:57:34.436Z,17.30
2022-11-10T03:00:22.104Z,12.13
2022-11-10T03:03:09.406Z,18.53
2022-11-10T03:05:56.559Z,13.43
2022-11-10T03:08:43.569Z,18.33
2022-11-10T03:11:32.627Z,14.10
2022-11-10T03:14:20.010Z,12.43
2022-11-10T03:17:07.509Z,18.63
2022-11-10T03:19:54.328Z,19.10
2022-11-10T03:22:42.583Z,13.87
2022-11-10T03:25:29.529Z,22.80
2022-11-10T03:28:17.873Z,15.57
2022-11-10T03:31:05.526Z,19.03
2022-11-10T03:33:53.064Z,23.57
2022-11-10T03:36:40.284Z,18.27
2022-11-10T03:39:27.361Z,12.87
2022-11-10T03:42:14.436Z,20.93
2022-11-10T03:45:02.969Z,14.97
2022-11-10T03:47:51.065Z,13.63
2022-11-10T03:50:38.721Z,15.93
2022-11-10T03:53:26.227Z,20.77
2022-11-10T03:56:13.667Z,15.20
2022-11-10T03:59:00.771Z,15.83
2022-11-10T04:01:49.359Z,16.13
2022-11-10T04:04:53.917Z,15.90
2022-11-10T04:08:09.731Z,15.80
2022-11-10T04:10:56.852Z,16.87
2022-11-10T04:14:01.687Z,18.23
2022-11-10T04:16:50.220Z,16.93
2022-11-10T04:19:37.429Z,16.37
2022-11-10T04:22:38.159Z,18.83
2022-11-10T04:25:25.278Z,15.07
2022-11-10T04:28:12.546Z,17.53
2022-11-10T04:30:59.729Z,15.83
2022-11-10T04:33:49.332Z,16.33
2022-11-10T04:36:38.157Z,19.50
2022-11-10T04:39:25.012Z,13.70
2022-11-10T04:42:11.804Z,18.90
2022-11-10T04:44:58.890Z,27.30
2022-11-10T04:47:45.727Z,16.07
2022-11-10T04:50:34.151Z,19.73
2022-11-10T04:53:21.423Z,21.07
2022-11-10T04:56:11.145Z,20.30
2022-11-10T04:58:58.067Z,23.40
2022-11-10T05:01:45.061Z,20.27
2022-11-10T05:04:32.433Z,18.90
2022-11-10T05:07:21.063Z,21.63
2022-11-10T05:10:08.364Z,20.70
2022-11-10T05:12:58.884Z,17.53
2022-11-10T05:15:47.007Z,17.23
2022-11-10T05:18:33.987Z,22.23
2022-11-10T05:21:20.687Z,19.20
2022-11-10T05:24:09.409Z,16.40
2022-11-10T05:26:56.414Z,23.80
2022-11-10T05:29:43.011Z,16.30
2022-11-10T05:32:31.150Z,21.40
2022-11-10T05:35:18.473Z,27.67
2022-11-10T05:38:07.008Z,20.93
2022-11-10T05:40:55.185Z,19.13
2022-11-10T05:43:42.506Z,18.40
2022-11-10T05:46:31.625Z,18.63
2022-11-10T05:49:18.971Z,15.77
2022-11-10T05:52:06.190Z,19.13
2022-11-10T05:54:55.481Z,18.10
2022-11-10T05:57:45.856Z,11.30
2022-11-10T06:00:33.708Z,19.80
2022-11-10T06:03:21.895Z,25.37
2022-11-10T06:06:09.833Z,19.27
2022-11-10T06:08:59.380Z,19.80
2022-11-10T06:11:46.818Z,20.13
2022-11-10T06:14:35.869Z,15.53
2022-11-10T06:17:22.792Z,17.80
2022-11-10T06:20:10.712Z,17.90
2022-11-10T06:23:02.571Z,18.00
2022-11-10T06:25:49.762Z,20.47
2022-11-10T06:28:36.989Z,28.90
2022-11-10T06:31:25.735Z,20.63
2022-11-10T06:34:13.148Z,12.67
2022-11-10T06:37:00.977Z,21.77
2022-11-10T06:39:47.852Z,18.53
2022-11-10T06:42:35.262Z,18.93
2022-11-10T06:45:23.339Z,23.83
2022-11-10T06:48:14.790Z,22.07
2022-11-10T06:51:02.358Z,21.53
2022-11-10T06:53:49.133Z,21.03
2022-11-10T06:56:36.146Z,25.80
2022-11-10T06:59:23.208Z,20.60
2022-11-10T07:02:14.810Z,27.27
2022-11-10T07:05:03.185Z,16.63
2022-11-10T07:07:57.605Z,22.03
2022-11-10T07:10:46.406Z,15.37
2022-11-10T07:13:33.506Z,21.53
2022-11-10T07:16:24.501Z,17.00
2022-11-10T07:19:11.812Z,21.57
2022-11-10T07:22:01.018Z,22.43
2022-11-10T07:24:48.510Z,16.73
2022-11-10T07:27:38.409Z,20.07
2022-11-10T07:30:26.719Z,23.23
2022-11-10T07:33:17.031Z,21.43
2022-11-10T07:36:05.549Z,26.30
2022-11-10T07:38:54.378Z,14.87
2022-11-10T07:41:42.105Z,17.87
2022-11-10T07:44:29.367Z,15.00
2022-11-10T07:47:18.478Z,20.70
2022-11-10T07:50:06.315Z,18.23
2022-11-10T07:52:53.575Z,13.77
2022-11-10T07:55:44.312Z,19.77
2022-11-10T07:58:32.777Z,21.27
2022-11-10T08:01:20.385Z,15.60
2022-11-10T08:04:08.145Z,23.93
2022-11-10T08:06:55.924Z,23.20
2022-11-10T08:09:43.376Z,23.70
2022-11-10T08:12:33.953Z,22.07
2022-11-10T08:15:21.345Z,16.00
2022-11-10T08:18:15.083Z,25.10
2022-11-10T08:21:02.570Z,20.47
2022-11-10T08:23:49.874Z,20.83
2022-11-10T08:26:37.150Z,20.10
2022-11-10T08:29:28.644Z,26.27
2022-11-10T08:32:15.934Z,18.70
2022-11-10T08:35:03.738Z,19.53
2022-11-10T08:37:51.249Z,17.33
2022-11-10T08:40:39.140Z,22.90
2022-11-10T08:43:26.354Z,15.90
2022-11-10T08:46:14.922Z,19.50
2022-11-10T08:49:02.245Z,27.23
2022-11-10T08:51:49.326Z,13.17
2022-11-10T08:54:36.496Z,17.33
2022-11-10T08:57:23.992Z,23.47
2022-11-10T09:00:12.709Z,21.23
2022-11-10T09:03:06.339Z,16.83
2022-11-10T09:05:58.217Z,16.40
2022-11-10T09:08:46.438Z,17.63
2022-11-10T09:11:33.583Z,21.97
2022-11-10T09:14:20.583Z,18.60
2022-11-10T09:17:07.999Z,24.00
2022-11-10T09:19:56.837Z,17.63
2022-11-10T09:22:43.965Z,16.70
2022-11-10T09:25:30.835Z,20.63
2022-11-10T09:28:18.941Z,22.30
2022-11-10T09:31:06.177Z,21.70
2022-11-10T09:33:53.619Z,20.33
2022-11-10T09:36:43.314Z,19.60
2022-11-10T09:39:30.765Z,18.67
2022-11-10T09:42:29.351Z,19.73
2022-11-10T09:45:27.333Z,15.77
2022-11-10T09:48:21.091Z,17.10
2022-11-10T09:51:11.127Z,24.97
2022-11-10T09:54:04.249Z,23.73
2022-11-10T09:56:56.963Z,16.87
2022-11-10T09:59:45.581Z,20.57
2022-11-10T10:02:37.596Z,24.43
2022-11-10T10:05:37.015Z,18.30
2022-11-10T10:08:34.077Z,16.43
2022-11-10T10:11:41.540Z,13.23
2022-11-10T10:14:56.575Z,17.97
2022-11-10T10:17:54.852Z,15.20
2022-11-10T10:20:54.275Z,17.20
2022-11-10T10:27:02.209Z,14.53
2022-11-10T10:29:50.835Z,21.17
2022-11-10T10:32:37.853Z,14.03
2022-11-10T10:35:25.534Z,15.17
2022-11-10T10:38:22.164Z,12.17
2022-11-10T10:41:20.932Z,17.87
2022-11-10T10:44:14.867Z,19.63
2022-11-10T10:47:03.258Z,17.13
2022-11-10T10:49:50.866Z,14.17
2022-11-10T10:52:37.829Z,12.23
2022-11-10T10:55:29.551Z,18.60
2022-11-10T10:58:26.944Z,13.63
2022-11-10T11:01:28.644Z,12.50
2022-11-10T11:04:32.514Z,11.83
2022-11-10T11:07:24.759Z,17.07
2022-11-10T11:10:23.547Z,12.90
2022-11-10T11:13:22.751Z,13.67
2022-11-10T11:16:12.968Z,14.00
2022-11-10T11:19:01.805Z,18.77
2022-11-10T11:22:11.969Z,17.30
2022-11-10T11:25:10.548Z,15.60
2022-11-10T11:28:10.378Z,15.67
2022-11-10T11:31:08.222Z,16.70
2022-11-10T11:34:05.952Z,10.73
2022-11-10T11:37:08.421Z,16.10
2022-11-10T11:40:06.611Z,12.13
2022-11-10T11:43:05.685Z,15.43
2022-11-10T11:46:01.240Z,10.30
2022-11-10T11:48:53.195Z,12.20
2022-11-10T11:51:51.056Z,16.30
2022-11-10T11:54:49.546Z,11.10
2022-11-10T11:57:51.610Z,11.63
2022-11-10T12:00:47.226Z,14.40
2022-11-10T12:03:48.933Z,11.07
2022-11-10T12:06:53.990Z,9.73
2022-11-10T12:09:46.275Z,9.10
2022-11-10T12:13:06.716Z,17.07
2022-11-10T12:16:01.508Z,9.77
2022-11-10T12:18:57.793Z,14.00
2022-11-10T12:21:52.892Z,10.80
2022-11-10T12:24:56.375Z,14.10
2022-11-10T12:27:48.453Z,12.03
2022-11-10T12:30:38.115Z,14.17
2022-11-10T12:33:39.325Z,12.27
2022-11-10T12:36:29.498Z,21.43
2022-11-10T12:39:22.645Z,7.97
2022-11-10T12:42:16.343Z,7.43
2022-11-10T12:45:06.737Z,8.57
2022-11-10T12:47:55.661Z,7.20
2022-11-10T12:50:50.690Z,8.13
2022-11-10T12:53:41.471Z,12.10
2022-11-10T12:56:35.745Z,15.13
2022-11-10T12:59:35.000Z,9.47
2022-11-10T13:02:29.135Z,15.97
2022-11-10T13:05:33.282Z,10.37
2022-11-10T13:08:37.144Z,11.13
2022-11-10T13:11:28.885Z,8.73
2022-11-10T13:14:26.379Z,11.13
2022-11-10T13:17:46.921Z,7.63
2022-11-10T13:20:48.512Z,7.57
2022-11-10T13:24:13.898Z,6.70
2022-11-10T13:27:01.654Z,10.83
2022-11-10T13:29:58.737Z,12.57
2022-11-10T13:32:45.653Z,10.80
2022-11-10T13:35:55.470Z,7.83
2022-11-10T13:38:46.132Z,11.27
2022-11-10T13:41:35.744Z,9.33
2022-11-10T13:44:26.668Z,10.67
2022-11-10T13:48:01.704Z,9.93
2022-11-10T13:50:57.544Z,14.33
2022-11-10T13:53:54.910Z,10.70
2022-11-10T13:57:00.497Z,10.93
2022-11-10T13:59:50.507Z,15.57
2022-11-10T14:02:48.420Z,9.00
2022-11-10T14:06:05.818Z,5.40
2022-11-10T14:08:57.538Z,12.37
2022-11-10T14:11:50.155Z,9.57
2022-11-10T14:14:53.115Z,7.40
2022-11-10T14:17:45.541Z,9.27
2022-11-10T14:20:40.663Z,10.77
2022-11-10T14:23:31.693Z,10.87
2022-11-10T14:26:26.406Z,8.73
2022-11-10T14:29:35.810Z,9.90
2022-11-10T14:32:26.409Z,9.47
2022-11-10T14:35:23.955Z,9.87
2022-11-10T14:38:20.930Z,10.07
2022-11-10T14:41:17.880Z,7.50
2022-11-10T14:44:06.991Z,12.50
2022-11-10T14:46:54.769Z,10.73
2022-11-10T14:49:42.273Z,7.40
2022-11-10T14:52:31.759Z,8.63
2022-11-10T14:55:22.097Z,9.73
2022-11-10T14:58:15.159Z,9.63
2022-11-10T15:01:03.488Z,10.63
2022-11-10T15:03:50.838Z,7.00
2022-11-10T15:06:38.567Z,9.30
2022-11-10T15:09:31.463Z,11.00
2022-11-10T15:12:24.764Z,9.80
2022-11-10T15:15:23.177Z,9.23
2022-11-10T15:18:27.820Z,9.30
2022-11-10T15:21:16.730Z,15.83
2022-11-10T15:24:07.682Z,8.57
2022-11-10T15:26:56.615Z,6.07
2022-11-10T15:29:43.924Z,5.33
2022-11-10T15:32:36.028Z,7.77
2022-11-10T15:35:29.879Z,11.47
2022-11-10T15:38:32.000Z,15.57
2022-11-10T15:41:27.439Z,13.10
2022-11-10T15:44:21.418Z,8.27
2022-11-10T15:47:13.809Z,15.17
2022-11-10T15:50:02.409Z,8.97
2022-11-10T15:52:49.198Z,8.60
2022-11-10T15:55:36.200Z,17.67
2022-11-10T15:58:24.540Z,11.43
2022-11-10T16:01:14.358Z,13.60
2022-11-10T16:04:01.661Z,14.07
2022-11-10T16:06:48.958Z,12.97
2022-11-10T16:09:36.418Z,12.23
2022-11-10T16:12:24.515Z,8.37
2022-11-10T16:15:21.338Z,12.37
2022-11-10T16:18:14.012Z,10.37
2022-11-10T16:21:01.074Z,5.87
2022-11-10T16:23:48.697Z,6.27
2022-11-10T16:26:35.768Z,6.17
2022-11-10T16:29:23.040Z,7.43
2022-11-10T16:32:12.432Z,6.23
2022-11-10T16:35:00.949Z,7.23
2022-11-10T16:37:48.543Z,7.27
2022-11-10T16:40:35.714Z,7.07
2022-11-10T16:43:23.022Z,14.33
2022-11-10T16:46:19.742Z,9.80
2022-11-10T16:49:08.984Z,10.93
2022-11-10T16:51:58.027Z,9.83
2022-11-10T16:54:45.460Z,7.67
2022-11-10T16:57:37.211Z,6.93
2022-11-10T17:00:27.595Z,7.33
2022-11-10T17:03:18.470Z,7.67
2022-11-10T17:06:06.499Z,10.17
2022-11-10T17:08:59.310Z,8.83
2022-11-10T17:11:46.265Z,9.23
2022-11-10T17:14:34.491Z,10.77
2022-11-10T17:17:25.570Z,11.00
2022-11-10T17:20:20.537Z,10.87
2022-11-10T17:23:08.780Z,8.73
2022-11-10T17:25:57.812Z,9.50
2022-11-10T17:28:44.942Z,11.67
2022-11-10T17:31:32.080Z,10.50
2022-11-10T17:34:19.354Z,8.83
2022-11-10T17:37:07.288Z,8.87
2022-11-10T17:39:55.267Z,8.03
2022-11-10T17:42:44.387Z,9.93
2022-11-10T17:45:31.362Z,8.63
2022-11-10T17:48:19.044Z,6.20
2022-11-10T17:51:07.359Z,11.37
2022-11-10T17:53:55.233Z,9.07
2022-11-10T17:56:43.257Z,9.47
2022-11-10T17:59:32.133Z,12.20
2022-11-10T18:02:19.345Z,11.13
2022-11-10T18:05:07.718Z,11.77
2022-11-10T18:07:55.399Z,11.00
2022-11-10T18:10:43.596Z,8.13
2022-11-10T18:13:30.912Z,11.33
2022-11-10T18:16:19.509Z,7.67
2022-11-10T18:19:06.678Z,19.60
2022-11-10T18:21:54.018Z,7.13
2022-11-10T18:24:42.588Z,8.20
2022-11-10T18:27:29.794Z,14.27
2022-11-10T18:30:18.806Z,11.70
2022-11-10T18:33:08.382Z,14.60
2022-11-10T18:36:01.685Z,6.63
2022-11-10T18:38:48.987Z,10.17
2022-11-10T18:41:52.356Z,11.80
2022-11-10T18:44:39.923Z,13.53
2022-11-10T18:47:27.356Z,11.07
2022-11-10T18:50:17.395Z,15.20
2022-11-10T18:53:04.742Z,7.47
2022-11-10T18:55:55.940Z,11.60
2022-11-10T18:58:43.785Z,7.93
2022-11-10T19:01:31.144Z,10.17
2022-11-10T19:04:18.766Z,12.57
2022-11-10T19:07:08.055Z,13.07
2022-11-10T19:09:55.373Z,10.53
2022-11-10T19:12:42.446Z,12.17
2022-11-10T19:15:29.634Z,7.53
2022-11-10T19:18:17.123Z,9.70
2022-11-10T19:21:06.807Z,10.13
2022-11-10T19:23:58.106Z,8.17
2022-11-10T19:26:46.582Z,16.53
2022-11-10T19:29:34.528Z,14.37
2022-11-10T19:32:24.870Z,8.83
2022-11-10T19:35:13.605Z,17.93
2022-11-10T19:38:00.940Z,7.27
2022-11-10T19:40:49.727Z,10.17
2022-11-10T19:43:38.457Z,14.23
2022-11-10T19:46:27.811Z,19.53
2022-11-10T19:49:14.996Z,7.70
2022-11-10T19:52:02.066Z,8.67
2022-11-10T19:54:49.341Z,11.17
2022-11-10T19:57:38.186Z,10.07
2022-11-10T20:00:26.060Z,9.67
2022-11-10T20:03:13.754Z,8.93
2022-11-10T20:06:02.349Z,5.33
2022-11-10T20:08:50.854Z,13.07
2022-11-10T20:11:38.404Z,14.67
2022-11-10T20:14:27.382Z,10.43
2022-11-10T20:17:15.072Z,10.03
2022-11-10T20:20:05.331Z,9.63
2022-11-10T20:22:52.653Z,7.27
2022-11-10T20:25:41.562Z,12.03
2022-11-10T20:28:29.690Z,10.87
2022-11-10T20:31:23.763Z,18.53
2022-11-10T20:34:12.185Z,6.87
2022-11-10T20:37:08.442Z,10.60
2022-11-10T20:39:56.383Z,7.13
2022-11-10T20:42:44.394Z,6.33
2022-11-10T20:45:35.836Z,9.80
2022-11-10T20:48:25.837Z,10.53
2022-11-10T20:51:15.256Z,15.17
2022-11-10T20:54:02.565Z,11.23
2022-11-10T20:56:51.131Z,10.87
2022-11-10T20:59:39.282Z,11.37
2022-11-10T21:02:26.792Z,9.03
2022-11-10T21:05:16.430Z,8.33
2022-11-10T21:08:03.715Z,10.97
2022-11-10T21:10:55.559Z,7.97
2022-11-10T21:13:42.616Z,7.50
2022-11-10T21:16:30.216Z,12.77
2022-11-10T21:19:17.518Z,12.30
2022-11-10T21:22:06.182Z,7.00
2022-11-10T21:24:53.555Z,6.83
2022-11-10T21:27:40.907Z,9.80
2022-11-10T21:30:28.469Z,8.13
2022-11-10T21:33:15.946Z,12.90
2022-11-10T21:36:07.377Z,11.20
2022-11-10T21:38:56.443Z,6.93
2022-11-10T21:41:43.617Z,10.00
2022-11-10T21:44:31.313Z,7.47
2022-11-10T21:47:18.672Z,7.60
2022-11-10T21:50:07.979Z,9.27
2022-11-10T21:52:56.147Z,7.70
2022-11-10T21:55:45.303Z,7.93
2022-11-10T21:58:34.442Z,13.27
2022-11-10T22:01:23.431Z,9.47
2022-11-10T22:04:11.760Z,10.33
2022-11-10T22:07:16.304Z,9.17
2022-11-10T22:10:21.279Z,14.17
2022-11-10T22:13:34.094Z,10.23
2022-11-10T22:16:42.686Z,11.83
2022-11-10T22:19:30.025Z,9.90
2022-11-10T22:22:18.135Z,12.40
2022-11-10T22:25:05.938Z,7.93
2022-11-10T22:27:55.465Z,6.40
2022-11-10T22:30:45.240Z,7.17
2022-11-10T22:33:35.304Z,14.20
2022-11-10T22:36:23.067Z,13.07
2022-11-10T22:39:10.840Z,7.80
2022-11-10T22:42:16.184Z,7.83
2022-11-10T22:45:03.139Z,10.33
2022-11-10T22:48:09.682Z,11.70
2022-11-10T22:50:59.458Z,10.73
2022-11-10T22:53:46.496Z,9.03
2022-11-10T22:56:34.653Z,10.07
2022-11-10T22:59:21.755Z,10.97
2022-11-10T23:02:09.005Z,10.60
2022-11-10T23:04:58.210Z,7.47
2022-11-10T23:07:45.609Z,11.00
2022-11-10T23:10:32.573Z,8.33
2022-11-10T23:13:19.722Z,6.60
2022-11-10T23:16:08.836Z,10.37
2022-11-10T23:18:57.376Z,11.97
2022-11-10T23:21:45.823Z,14.07
2022-11-10T23:24:32.765Z,11.80
2022-11-10T23:27:20.209Z,10.80
2022-11-10T23:30:08.117Z,10.57
2022-11-10T23:32:56.073Z,7.03
2022-11-10T23:35:43.256Z,8.33
2022-11-10T23:38:33.908Z,17.03
2022-11-10T23:41:23.830Z,11.37
2022-11-10T23:44:11.647Z,7.00
2022-11-10T23:46:58.525Z,12.70
2022-11-10T23:49:45.620Z,8.80
2022-11-10T23:52:32.784Z,7.67
2022-11-10T23:55:21.425Z,5.10
2022-11-10T23:58:08.915Z,8.60
